createdAt,value
2023-04-09T00:01:24.633Z,12.90
2023-04-09T00:03:54.129Z,14.50
2023-04-09T00:06:21.940Z,14.90
2023-04-09T00:08:49.917Z,15.23
2023-04-09T00:11:18.054Z,14.70
2023-04-09T00:13:45.923Z,17.20
2023-04-09T00:16:13.731Z,17.03
2023-04-09T00:18:41.826Z,18.77
2023-04-09T00:21:11.223Z,19.10
2023-04-09T00:23:39.746Z,19.80
2023-04-09T00:26:07.685Z,20.33
2023-04-09T00:28:36.093Z,19.87
2023-04-09T00:31:03.915Z,20.10
2023-04-09T00:33:31.755Z,18.43
2023-04-09T00:35:59.792Z,18.13
2023-04-09T00:38:29.294Z,18.57
2023-04-09T00:40:57.148Z,17.50
2023-04-09T00:43:25.052Z,17.63
2023-04-09T00:45:53.038Z,15.87
2023-04-09T00:48:21.008Z,18.63
2023-04-09T00:50:48.793Z,18.17
2023-04-09T00:53:17.485Z,18.37
2023-04-09T00:55:47.164Z,17.40
2023-04-09T00:58:15.695Z,17.57
2023-04-09T01:00:43.567Z,17.73
2023-04-09T01:03:11.813Z,18.77
2023-04-09T01:05:57.435Z,17.00
2023-04-09T01:08:39.061Z,17.43
2023-04-09T01:11:21.866Z,17.63
2023-04-09T01:13:57.585Z,17.87
2023-04-09T01:16:25.778Z,17.60
2023-04-09T01:18:59.095Z,18.40
2023-04-09T01:21:32.598Z,17.20
2023-04-09T01:24:11.097Z,17.47
2023-04-09T01:26:55.511Z,16.13
2023-04-09T01:29:26.743Z,17.10
2023-04-09T01:31:56.309Z,14.77
2023-04-09T01:34:24.546Z,17.07
2023-04-09T01:36:56.808Z,15.27
2023-04-09T01:39:25.153Z,16.57
2023-04-09T01:41:53.941Z,19.73
2023-04-09T01:44:22.671Z,18.40
2023-04-09T01:46:53.031Z,20.73
2023-04-09T01:49:21.189Z,19.10
2023-04-09T01:51:49.472Z,19.03
2023-04-09T01:54:17.775Z,21.93
2023-04-09T01:56:47.117Z,21.50
2023-04-09T01:59:16.257Z,21.27
2023-04-09T02:01:47.660Z,20.27
2023-04-09T02:04:24.778Z,24.00
2023-04-09T02:07:00.474Z,26.27
2023-04-09T02:09:31.120Z,22.37
2023-04-09T02:12:00.832Z,20.80
2023-04-09T02:14:30.333Z,21.43
2023-04-09T02:16:58.354Z,19.03
2023-04-09T02:19:39.678Z,20.67
2023-04-09T02:22:07.616Z,21.97
2023-04-09T02:24:36.399Z,19.53
2023-04-09T02:27:06.125Z,22.30
2023-04-09T02:29:34.574Z,20.67
2023-04-09T02:32:02.456Z,19.80
2023-04-09T02:34:31.717Z,19.83
2023-04-09T02:36:59.610Z,20.37
2023-04-09T02:39:27.977Z,21.03
2023-04-09T02:41:56.219Z,23.00
2023-04-09T02:44:24.191Z,19.23
2023-04-09T02:46:52.683Z,21.67
2023-04-09T02:49:20.514Z,21.77
2023-04-09T02:51:49.717Z,18.87
2023-04-09T02:54:17.498Z,19.90
2023-04-09T02:56:45.321Z,19.27
2023-04-09T02:59:13.259Z,19.83
2023-04-09T03:01:41.139Z,18.53
2023-04-09T03:04:09.044Z,19.33
2023-04-09T03:06:37.076Z,17.90
2023-04-09T03:09:06.437Z,18.47
2023-04-09T03:11:34.231Z,18.87
2023-04-09T03:14:02.426Z,18.90
2023-04-09T03:16:30.270Z,18.73
2023-04-09T03:18:58.172Z,18.63
2023-04-09T03:21:27.599Z,17.30
2023-04-09T03:23:55.431Z,19.47
2023-04-09T03:26:24.622Z,18.27
2023-04-09T03:28:52.846Z,18.07
2023-04-09T03:31:20.786Z,17.90
2023-04-09T03:33:48.612Z,20.10
2023-04-09T03:36:16.592Z,21.17
2023-04-09T03:38:44.450Z,18.20
2023-04-09T03:41:12.405Z,19.90
2023-04-09T03:43:41.926Z,19.80
2023-04-09T03:46:13.448Z,18.13
2023-04-09T03:48:41.341Z,17.60
2023-04-09T03:51:14.213Z,18.33
2023-04-09T03:53:42.451Z,18.20
2023-04-09T03:56:11.600Z,19.97
2023-04-09T03:58:39.558Z,19.03
2023-04-09T04:01:08.786Z,18.13
2023-04-09T04:03:36.974Z,17.20
2023-04-09T04:06:05.538Z,18.93
2023-04-09T04:08:33.380Z,17.60
2023-04-09T04:11:04.778Z,17.00
2023-04-09T04:13:32.852Z,20.03
2023-04-09T04:16:00.790Z,18.63
2023-04-09T04:18:30.020Z,17.80
2023-04-09T04:20:57.831Z,19.93
2023-04-09T04:23:25.613Z,18.43
2023-04-09T04:25:54.257Z,19.00
2023-04-09T04:28:22.202Z,18.43
2023-04-09T04:30:50.064Z,19.87
2023-04-09T04:33:17.862Z,20.27
2023-04-09T04:35:47.815Z,17.43
2023-04-09T04:38:15.661Z,18.33
2023-04-09T04:40:43.555Z,18.93
2023-04-09T04:43:11.548Z,17.33
2023-04-09T04:45:39.381Z,19.00
2023-04-09T04:48:07.241Z,18.50
2023-04-09T04:50:35.064Z,20.70
2023-04-09T04:53:04.284Z,19.23
2023-04-09T04:55:32.079Z,19.73
2023-04-09T04:58:00.268Z,20.37
2023-04-09T05:00:28.167Z,22.67
2023-04-09T05:02:56.160Z,21.27
2023-04-09T05:05:24.694Z,23.77
2023-04-09T05:07:52.543Z,21.73
2023-04-09T05:10:21.892Z,22.57
2023-04-09T05:12:49.778Z,23.33
2023-04-09T05:15:17.839Z,22.77
2023-04-09T05:17:45.895Z,23.37
2023-04-09T05:20:14.119Z,22.27
2023-04-09T05:22:41.941Z,22.70
2023-04-09T05:25:10.478Z,20.77
2023-04-09T05:27:39.958Z,22.07
2023-04-09T05:30:09.363Z,21.47
2023-04-09T05:32:37.175Z,21.53
2023-04-09T05:35:05.831Z,22.20
2023-04-09T05:37:33.756Z,20.63
2023-04-09T05:40:01.711Z,20.77
2023-04-09T05:42:29.688Z,21.57
2023-04-09T05:44:59.028Z,21.27
2023-04-09T05:47:27.032Z,20.87
2023-04-09T05:49:55.103Z,22.80
2023-04-09T05:52:22.950Z,21.13
2023-04-09T05:54:50.759Z,20.07
2023-04-09T05:57:18.582Z,21.37
2023-04-09T05:59:46.467Z,20.37
2023-04-09T06:02:16.028Z,21.07
2023-04-09T06:04:44.164Z,20.83
2023-04-09T06:07:12.052Z,21.10
2023-04-09T06:09:39.878Z,20.93
2023-04-09T06:12:07.808Z,20.53
2023-04-09T06:14:35.641Z,21.23
2023-04-09T06:17:03.498Z,21.93
2023-04-09T06:19:32.906Z,21.73
2023-04-09T06:22:00.802Z,20.73
2023-04-09T06:24:28.605Z,22.17
2023-04-09T06:26:56.717Z,21.50
2023-04-09T06:29:24.611Z,20.97
2023-04-09T06:31:52.703Z,21.30
2023-04-09T06:34:20.790Z,21.47
2023-04-09T06:36:50.120Z,19.60
2023-04-09T06:39:18.007Z,20.90
2023-04-09T06:41:46.632Z,21.40
2023-04-09T06:44:14.682Z,20.97
2023-04-09T06:46:42.565Z,19.60
2023-04-09T06:49:10.723Z,20.27
2023-04-09T06:51:38.572Z,22.30
2023-04-09T06:54:07.927Z,20.67
2023-04-09T06:56:36.197Z,22.07
2023-04-09T06:59:04.553Z,21.87
2023-04-09T07:01:32.675Z,21.33
2023-04-09T07:04:00.600Z,21.07
2023-04-09T07:06:28.657Z,22.23
2023-04-09T07:08:56.672Z,21.27
2023-04-09T07:11:26.642Z,21.30
2023-04-09T07:13:56.686Z,19.90
2023-04-09T07:16:24.600Z,20.70
2023-04-09T07:18:52.517Z,21.07
2023-04-09T07:21:20.472Z,20.57
2023-04-09T07:23:48.298Z,20.63
2023-04-09T07:26:16.443Z,21.67
2023-04-09T07:28:45.664Z,21.67
2023-04-09T07:31:13.977Z,21.50
2023-04-09T07:33:41.940Z,21.00
2023-04-09T07:36:09.861Z,21.70
2023-04-09T07:38:37.846Z,21.10
2023-04-09T07:41:05.986Z,22.30
2023-04-09T07:43:33.879Z,21.73
2023-04-09T07:46:03.239Z,22.67
2023-04-09T07:48:31.454Z,20.50
2023-04-09T07:50:59.531Z,21.50
2023-04-09T07:53:27.451Z,21.80
2023-04-09T07:55:55.770Z,21.00
2023-04-09T07:58:23.562Z,22.00
2023-04-09T08:00:51.341Z,22.47
2023-04-09T08:03:22.004Z,22.03
2023-04-09T08:05:50.494Z,20.23
2023-04-09T08:08:19.175Z,21.07
2023-04-09T08:10:47.142Z,20.50
2023-04-09T08:13:14.905Z,22.00
2023-04-09T08:15:42.775Z,21.43
2023-04-09T08:18:10.720Z,20.23
2023-04-09T08:20:44.884Z,20.80
2023-04-09T08:23:13.065Z,20.80
2023-04-09T08:25:40.910Z,22.43
2023-04-09T08:28:09.240Z,21.30
2023-04-09T08:30:37.379Z,22.40
2023-04-09T08:33:05.508Z,22.03
2023-04-09T08:35:33.578Z,22.10
2023-04-09T08:38:03.326Z,22.00
2023-04-09T08:40:35.904Z,21.10
2023-04-09T08:43:07.103Z,21.83
2023-04-09T08:45:35.055Z,21.70
2023-04-09T08:48:04.447Z,22.70
2023-04-09T08:50:33.960Z,21.10
2023-04-09T08:53:05.977Z,21.67
2023-04-09T08:55:35.366Z,20.90
2023-04-09T08:58:05.836Z,22.37
2023-04-09T09:00:33.572Z,25.77
2023-04-09T09:03:06.619Z,29.87
2023-04-09T09:05:39.138Z,34.73
2023-04-09T09:08:09.270Z,23.83
2023-04-09T09:10:41.963Z,24.60
2023-04-09T09:13:21.510Z,28.87
2023-04-09T09:15:50.614Z,37.37
2023-04-09T09:18:19.024Z,20.33
2023-04-09T09:20:46.930Z,20.73
2023-04-09T09:23:16.238Z,20.40
2023-04-09T09:25:44.627Z,20.80
2023-04-09T09:28:13.844Z,22.90
2023-04-09T09:30:41.899Z,21.27
2023-04-09T09:33:11.262Z,20.77
2023-04-09T09:35:49.870Z,19.10
2023-04-09T09:38:19.297Z,19.63
2023-04-09T09:40:48.045Z,18.97
2023-04-09T09:43:16.411Z,18.67
2023-04-09T09:45:45.599Z,19.20
2023-04-09T09:48:14.296Z,19.63
2023-04-09T09:50:43.627Z,19.50
2023-04-09T09:53:12.797Z,18.90
2023-04-09T09:55:44.834Z,17.80
2023-04-09T09:58:18.124Z,19.60
2023-04-09T10:00:49.141Z,18.70
2023-04-09T10:03:23.296Z,18.97
2023-04-09T10:05:53.782Z,19.50
2023-04-09T10:08:23.025Z,20.30
2023-04-09T10:10:53.586Z,19.93
2023-04-09T10:13:26.974Z,18.80
2023-04-09T10:15:55.691Z,19.17
2023-04-09T10:18:23.608Z,19.40
2023-04-09T10:20:58.074Z,21.03
2023-04-09T10:23:35.321Z,20.20
2023-04-09T10:26:05.901Z,20.20
2023-04-09T10:28:34.074Z,21.00
2023-04-09T10:31:02.734Z,19.73
2023-04-09T10:33:30.865Z,18.73
2023-04-09T10:36:01.851Z,20.80
2023-04-09T10:38:37.748Z,20.80
2023-04-09T10:41:15.005Z,20.98
2023-04-09T10:43:43.197Z,21.93
2023-04-09T10:46:27.259Z,20.47
2023-04-09T10:49:10.872Z,21.15
2023-04-09T10:51:39.686Z,19.75
2023-04-09T10:54:07.785Z,19.55
2023-04-09T10:56:37.066Z,19.60
2023-04-09T10:59:04.888Z,20.48
2023-04-09T11:01:32.794Z,20.40
2023-04-09T11:04:17.907Z,19.38
2023-04-09T11:06:46.640Z,18.42
2023-04-09T11:09:14.425Z,19.25
2023-04-09T11:11:43.959Z,19.80
2023-04-09T11:14:11.757Z,19.60
2023-04-09T11:16:39.637Z,20.50
2023-04-09T11:19:08.026Z,19.13
2023-04-09T11:21:36.322Z,20.05
2023-04-09T11:24:04.255Z,20.27
2023-04-09T11:26:37.497Z,18.63
2023-04-09T11:29:08.480Z,18.67
2023-04-09T11:31:37.206Z,20.42
2023-04-09T11:34:05.064Z,18.73
2023-04-09T11:36:35.783Z,19.35
2023-04-09T11:39:04.047Z,17.83
2023-04-09T11:41:35.501Z,19.30
2023-04-09T11:44:04.885Z,18.42
2023-04-09T11:46:34.519Z,20.15
2023-04-09T11:49:03.239Z,19.73
2023-04-09T11:51:32.752Z,18.48
2023-04-09T11:54:03.471Z,18.58
2023-04-09T11:56:32.491Z,18.42
2023-04-09T11:59:00.600Z,19.20
2023-04-09T12:01:33.158Z,19.25
2023-04-09T12:04:03.182Z,19.42
2023-04-09T12:06:31.815Z,18.42
2023-04-09T12:09:00.836Z,23.17
2023-04-09T12:11:31.863Z,18.58
2023-04-09T12:14:03.502Z,18.58
2023-04-09T12:16:32.498Z,18.13
2023-04-09T12:19:04.038Z,18.17
2023-04-09T12:21:47.373Z,17.30
2023-04-09T12:24:16.191Z,18.48
2023-04-09T12:26:44.660Z,18.17
2023-04-09T12:29:12.444Z,18.58
2023-04-09T12:31:40.829Z,19.55
2023-04-09T12:34:10.279Z,19.80
2023-04-09T12:36:39.662Z,18.08
2023-04-09T12:39:07.523Z,18.63
2023-04-09T12:41:35.555Z,18.65
2023-04-09T12:44:03.725Z,19.00
2023-04-09T12:46:32.782Z,18.17
2023-04-09T12:49:00.928Z,17.88
2023-04-09T12:51:30.732Z,18.58
2023-04-09T12:53:58.867Z,19.50
2023-04-09T12:56:29.736Z,17.98
2023-04-09T12:58:57.789Z,17.58
2023-04-09T13:01:26.014Z,18.83
2023-04-09T13:03:54.165Z,19.38
2023-04-09T13:06:22.994Z,17.02
2023-04-09T13:08:52.390Z,18.05
2023-04-09T13:11:20.292Z,17.73
2023-04-09T13:13:48.097Z,16.92
2023-04-09T13:16:16.315Z,18.65
2023-04-09T13:18:44.277Z,17.50
2023-04-09T13:21:13.333Z,17.58
2023-04-09T13:23:41.561Z,17.92
2023-04-09T13:26:10.905Z,17.77
2023-04-09T13:28:38.898Z,16.30
2023-04-09T13:31:07.626Z,17.50
2023-04-09T13:33:35.579Z,16.98
2023-04-09T13:36:03.609Z,17.73
2023-04-09T13:38:31.976Z,17.52
2023-04-09T13:40:59.927Z,17.77
2023-04-09T13:43:29.276Z,17.70
2023-04-09T17:25:27.689Z,13.10
2023-04-09T17:27:55.997Z,11.80
2023-04-09T17:30:24.439Z,12.60
2023-04-09T17:32:53.116Z,11.57
2023-04-09T17:35:21.780Z,12.60
2023-04-09T17:37:50.315Z,12.70
2023-04-09T17:40:20.326Z,11.98
2023-04-09T17:42:52.236Z,12.23
2023-04-09T17:45:20.966Z,12.02
2023-04-09T17:47:51.255Z,12.50
2023-04-09T17:50:22.635Z,13.20
2023-04-09T17:52:51.161Z,12.20
2023-04-09T17:55:19.644Z,13.13
2023-04-09T17:57:50.737Z,11.97
2023-04-09T18:00:18.813Z,12.27
2023-04-09T18:02:47.015Z,11.57
2023-04-09T18:05:15.274Z,11.70
2023-04-09T18:07:43.261Z,12.70
2023-04-09T18:10:11.660Z,12.27
2023-04-09T18:12:39.492Z,12.63
2023-04-09T18:15:09.777Z,12.80
2023-04-09T18:17:37.660Z,11.88
2023-04-09T18:20:06.553Z,11.20
2023-04-09T18:22:35.120Z,13.20
2023-04-09T18:25:03.299Z,12.07
2023-04-09T18:27:31.451Z,11.87
2023-04-09T18:29:59.312Z,12.47
2023-04-09T18:32:28.576Z,11.40
2023-04-09T18:34:56.946Z,10.60
2023-04-09T18:37:25.021Z,11.80
2023-04-09T18:39:52.784Z,12.20
2023-04-09T18:42:20.501Z,10.77
2023-04-09T18:44:48.738Z,14.20
2023-04-09T18:47:16.491Z,15.33
2023-04-09T18:49:45.778Z,18.73
2023-04-09T18:52:13.533Z,19.10
2023-04-09T18:54:41.334Z,19.00
2023-04-09T18:57:09.222Z,17.37
2023-04-09T18:59:40.364Z,15.47
2023-04-09T19:02:08.296Z,15.67
2023-04-09T19:04:39.720Z,15.57
2023-04-09T19:07:09.484Z,16.27
2023-04-09T19:09:39.523Z,15.60
2023-04-09T19:12:07.430Z,15.10
2023-04-09T19:14:36.484Z,15.30
2023-04-09T19:17:04.253Z,14.80
2023-04-09T19:19:32.576Z,16.07
2023-04-09T19:22:00.471Z,14.07
2023-04-09T19:24:30.143Z,15.27
2023-04-09T19:26:58.260Z,13.73
2023-04-09T19:29:26.933Z,15.30
2023-04-09T19:31:54.758Z,17.40
2023-04-09T19:34:22.755Z,16.93
2023-04-09T19:36:51.035Z,18.97
2023-04-09T19:39:18.883Z,17.90
2023-04-09T19:41:48.107Z,18.67
2023-04-09T19:44:15.922Z,17.33
2023-04-09T19:46:43.674Z,19.23
2023-04-09T19:49:11.429Z,18.17
2023-04-09T19:51:39.440Z,18.80
2023-04-09T19:54:07.277Z,17.93
2023-04-09T19:56:35.135Z,17.77
2023-04-09T19:59:04.283Z,17.70
2023-04-09T20:01:32.468Z,16.93
2023-04-09T20:04:01.010Z,18.37
2023-04-09T20:06:30.739Z,17.57
2023-04-09T20:08:59.292Z,16.87
2023-04-09T20:11:27.154Z,16.73
2023-04-09T20:13:54.948Z,17.10
2023-04-09T20:16:24.250Z,16.10
2023-04-09T20:18:52.106Z,17.33
2023-04-09T20:21:20.193Z,17.53
2023-04-09T20:23:48.074Z,16.70
2023-04-09T20:26:16.345Z,16.70
2023-04-09T20:28:44.179Z,16.47
2023-04-09T20:31:12.068Z,15.03
2023-04-09T20:33:41.563Z,15.90
2023-04-09T20:36:15.312Z,16.63
2023-04-09T20:38:43.264Z,16.80
2023-04-09T20:41:11.261Z,16.10
2023-04-09T20:43:39.487Z,15.33
2023-04-09T20:46:07.393Z,18.90
2023-04-09T20:48:35.410Z,18.70
2023-04-09T20:51:09.780Z,18.60
2023-04-09T20:53:37.788Z,19.37
2023-04-09T20:56:06.220Z,18.10
2023-04-09T20:58:34.513Z,19.43
2023-04-09T21:01:07.734Z,18.93
2023-04-09T21:03:36.331Z,16.83
2023-04-09T21:06:06.518Z,17.00
2023-04-09T21:08:34.265Z,17.33
2023-04-09T21:11:02.234Z,17.30
2023-04-09T21:13:33.661Z,15.50
2023-04-09T21:16:08.292Z,16.37
2023-04-09T21:18:36.345Z,17.67
2023-04-09T21:21:08.572Z,17.03
2023-04-09T21:23:36.666Z,17.53
2023-04-09T21:26:05.457Z,17.67
2023-04-09T21:28:33.274Z,15.57
2023-04-09T21:31:01.395Z,16.53
2023-04-09T21:33:30.321Z,16.40
2023-04-09T21:35:58.462Z,15.17
2023-04-09T21:38:28.022Z,15.27
2023-04-09T21:40:56.674Z,16.47
2023-04-09T21:43:24.856Z,15.17
2023-04-09T21:45:52.893Z,15.90
2023-04-09T21:48:21.522Z,15.33
2023-04-09T21:50:49.399Z,15.97
2023-04-09T21:53:17.478Z,14.67
2023-04-09T21:55:47.133Z,14.63
2023-04-09T21:58:14.909Z,14.43
2023-04-09T22:00:42.916Z,14.47
2023-04-09T22:03:11.106Z,15.23
2023-04-09T22:05:39.184Z,14.57
2023-04-09T22:08:07.301Z,16.40
2023-04-09T22:10:35.580Z,15.30
2023-04-09T22:13:04.833Z,17.07
2023-04-09T22:15:32.728Z,15.83
2023-04-09T22:18:00.628Z,16.57
2023-04-09T22:20:28.431Z,16.70
2023-04-09T22:22:56.168Z,18.43
2023-04-09T22:25:24.176Z,19.20
2023-04-09T22:27:53.932Z,19.27
2023-04-09T22:30:24.533Z,17.70
2023-04-09T22:32:52.653Z,18.90
2023-04-09T22:35:20.678Z,17.67
2023-04-09T22:37:48.372Z,17.43
2023-04-09T22:40:16.683Z,18.13
2023-04-09T22:42:45.433Z,16.93
2023-04-09T22:45:14.015Z,18.00
2023-04-09T22:47:43.314Z,17.93
2023-04-09T22:50:13.484Z,18.13
2023-04-09T22:52:41.252Z,18.17
2023-04-09T22:55:10.054Z,19.60
2023-04-09T22:57:38.401Z,18.07
2023-04-09T23:00:08.483Z,16.37
2023-04-09T23:02:37.008Z,16.87
2023-04-09T23:05:07.086Z,16.30
2023-04-09T23:07:35.563Z,15.30
2023-04-09T23:10:03.338Z,14.53
2023-04-09T23:12:31.184Z,15.83
2023-04-09T23:14:59.136Z,15.17
2023-04-09T23:17:27.842Z,15.67
2023-04-09T23:19:55.727Z,14.10
2023-04-09T23:22:27.069Z,15.23
2023-04-09T23:24:54.955Z,12.93
2023-04-09T23:27:28.105Z,14.03
2023-04-09T23:29:56.467Z,13.50
2023-04-09T23:32:24.282Z,13.73
2023-04-09T23:34:52.149Z,13.90
2023-04-09T23:37:20.595Z,13.17
2023-04-09T23:39:49.826Z,13.97
2023-04-09T23:42:17.779Z,13.73
2023-04-09T23:44:45.614Z,13.73
2023-04-09T23:47:13.738Z,13.13
2023-04-09T23:49:43.412Z,12.23
2023-04-09T23:52:11.412Z,12.90
2023-04-09T23:54:39.325Z,12.43
2023-04-09T23:57:08.605Z,12.07
2023-04-09T23:59:36.533Z,13.10
